Time;durP1;ratioP1;P1;durP2;ratioP2;P2;SDS_P1;SDS_P2;PMS_P1;PMS_P2;Temp;Humidity;BMP_temperature;BMP_pressure;BME280_temperature;BME280_humidity;BME280_pressure;Samples;Min_cycle;Max_cycle;Signal;HPM_P1;HPM_P2
2022/10/01 00:00:19;;;;;;;1999.90;999.90;;;;;;;;;;4994017;28;20574;-66
2022/10/01 00:03:04;;;;;;;1999.90;999.90;;;;;;;;;;4993554;28;20269;-61
2022/10/01 00:05:58;;;;;;;1999.90;999.90;;;;;;;;;;5009622;28;20231;-65
2022/10/01 00:08:44;;;;;;;1999.90;999.90;;;;;;;;;;5011786;28;20211;-65
2022/10/01 00:11:32;;;;;;;1999.90;999.90;;;;;;;;;;5009370;28;20208;-66
2022/10/01 00:14:17;;;;;;;1999.90;999.90;;;;;;;;;;5011440;28;20249;-65
2022/10/01 00:17:02;;;;;;;1999.90;999.90;;;;;;;;;;5011947;28;20240;-65
2022/10/01 00:19:48;;;;;;;1999.90;999.90;;;;;;;;;;5003376;28;20262;-65
2022/10/01 00:22:35;;;;;;;1999.90;999.90;;;;;;;;;;4993525;28;20226;-65
2022/10/01 00:25:21;;;;;;;1999.90;999.90;;;;;;;;;;4992995;28;20350;-65
2022/10/01 00:28:08;;;;;;;1999.90;999.90;;;;;;;;;;4994011;28;20649;-62
2022/10/01 00:30:53;;;;;;;1999.90;999.90;;;;;;;;;;4993396;28;20258;-65
2022/10/01 00:33:38;;;;;;;1999.90;999.90;;;;;;;;;;4993873;28;20348;-64
2022/10/01 00:36:24;;;;;;;1999.90;999.90;;;;;;;;;;4993381;28;20860;-65
2022/10/01 00:39:09;;;;;;;1999.90;999.90;;;;;;;;;;4993768;28;20203;-65
2022/10/01 00:41:56;;;;;;;1999.90;999.90;;;;;;;;;;4993425;28;20203;-66
2022/10/01 00:44:43;;;;;;;1999.90;999.90;;;;;;;;;;4993160;28;20310;-65
2022/10/01 00:47:31;;;;;;;1999.90;999.90;;;;;;;;;;4992459;28;20418;-65
2022/10/01 00:50:19;;;;;;;1999.90;999.90;;;;;;;;;;4993265;28;20727;-65
2022/10/01 00:53:06;;;;;;;1999.90;999.90;;;;;;;;;;4993177;28;20305;-66
2022/10/01 00:55:54;;;;;;;1999.90;999.90;;;;;;;;;;5002301;28;20238;-66
2022/10/01 00:58:39;;;;;;;1999.90;999.90;;;;;;;;;;5013011;28;20612;-64
2022/10/01 01:01:25;;;;;;;1999.90;999.90;;;;;;;;;;5012909;28;20210;-65
2022/10/01 01:04:16;;;;;;;1999.90;999.90;;;;;;;;;;5012249;28;21009;-64
2022/10/01 01:07:03;;;;;;;1999.90;999.90;;;;;;;;;;5012627;28;20225;-66
2022/10/01 01:09:49;;;;;;;1999.90;999.90;;;;;;;;;;5012779;28;20565;-66
2022/10/01 01:12:39;;;;;;;1999.90;999.90;;;;;;;;;;5012762;28;20203;-65
2022/10/01 01:15:26;;;;;;;1999.90;999.90;;;;;;;;;;5011935;28;20239;-66
2022/10/01 01:18:16;;;;;;;1999.90;999.90;;;;;;;;;;5012620;28;20335;-66
2022/10/01 01:21:07;;;;;;;1999.90;999.90;;;;;;;;;;5012594;28;20303;-66
2022/10/01 01:24:11;;;;;;;1999.90;999.90;;;;;;;;;;4992666;28;20216;-66
2022/10/01 01:27:10;;;;;;;1999.90;999.90;;;;;;;;;;4992382;28;20277;-66
2022/10/01 01:30:03;;;;;;;1999.90;999.90;;;;;;;;;;4992955;28;20215;-65
2022/10/01 01:32:51;;;;;;;1999.90;999.90;;;;;;;;;;4992264;28;20229;-66
2022/10/01 01:35:39;;;;;;;1999.90;999.90;;;;;;;;;;4992362;28;20287;-65
2022/10/01 01:38:28;;;;;;;1999.90;999.90;;;;;;;;;;4992550;28;20589;-66
2022/10/01 01:41:14;;;;;;;1999.90;999.90;;;;;;;;;;4992648;28;20332;-65
2022/10/01 01:44:01;;;;;;;1999.90;999.90;;;;;;;;;;4992443;28;20662;-66
2022/10/01 01:46:48;;;;;;;1999.90;999.90;;;;;;;;;;4992659;28;20207;-66
2022/10/01 01:49:34;;;;;;;1999.90;999.90;;;;;;;;;;4992634;28;20777;-66
2022/10/01 01:52:19;;;;;;;1999.90;999.90;;;;;;;;;;4992646;28;20210;-65
2022/10/01 01:55:07;;;;;;;1999.90;999.90;;;;;;;;;;4992270;28;20624;-65
2022/10/01 01:57:53;;;;;;;1999.90;999.90;;;;;;;;;;4992628;28;20203;-66
2022/10/01 02:00:39;;;;;;;1999.90;999.90;;;;;;;;;;5007590;28;20596;-65
2022/10/01 02:03:28;;;;;;;1999.90;999.90;;;;;;;;;;5011000;28;20222;-66
2022/10/01 02:06:17;;;;;;;1999.90;999.90;;;;;;;;;;5023562;28;20226;-65
2022/10/01 02:09:10;;;;;;;1999.90;999.90;;;;;;;;;;5024549;28;20215;-66
2022/10/01 02:12:01;;;;;;;1999.90;999.90;;;;;;;;;;5035513;28;20222;-66
2022/10/01 02:14:51;;;;;;;1999.90;999.90;;;;;;;;;;5035337;28;20735;-66
2022/10/01 02:17:49;;;;;;;1999.90;999.90;;;;;;;;;;5034628;28;20461;-66
2022/10/01 02:20:36;;;;;;;1999.90;999.90;;;;;;;;;;5032426;28;20200;-66
2022/10/01 02:23:25;;;;;;;1999.90;999.90;;;;;;;;;;5015718;28;20301;-66
2022/10/01 02:26:12;;;;;;;1999.90;999.90;;;;;;;;;;5015423;28;20228;-65
2022/10/01 02:28:59;;;;;;;1999.90;999.90;;;;;;;;;;5015565;28;20697;-61
2022/10/01 02:31:46;;;;;;;1999.90;999.90;;;;;;;;;;5016135;28;20688;-63
2022/10/01 02:34:31;;;;;;;1999.90;999.90;;;;;;;;;;5015551;28;20226;-64
2022/10/01 02:37:19;;;;;;;1999.90;999.90;;;;;;;;;;5012900;28;20227;-66
2022/10/01 02:40:07;;;;;;;1999.90;999.90;;;;;;;;;;5005946;28;20222;-66
2022/10/01 02:42:54;;;;;;;1999.90;999.90;;;;;;;;;;5014686;28;20210;-64
2022/10/01 02:45:40;;;;;;;1999.90;999.90;;;;;;;;;;5014485;28;20357;-65
2022/10/01 02:48:26;;;;;;;1999.90;999.90;;;;;;;;;;4997666;28;20213;-65
2022/10/01 02:51:17;;;;;;;1999.90;999.90;;;;;;;;;;5015174;28;20675;-65
2022/10/01 02:54:07;;;;;;;1999.90;999.90;;;;;;;;;;5008051;28;20204;-65
2022/10/01 02:59:57;;;;;;;1999.90;999.90;;;;;;;;;;5007109;28;20241;-65
2022/10/01 03:02:42;;;;;;;1999.90;999.90;;;;;;;;;;5014966;28;20217;-66
2022/10/01 03:05:28;;;;;;;1999.90;999.90;;;;;;;;;;5014694;28;20732;-65
2022/10/01 03:08:12;;;;;;;1999.90;999.90;;;;;;;;;;5014698;28;20301;-65
2022/10/01 03:10:59;;;;;;;1999.90;999.90;;;;;;;;;;5014803;28;20245;-64
2022/10/01 03:13:45;;;;;;;1999.90;999.90;;;;;;;;;;5014988;28;20203;-65
2022/10/01 03:16:29;;;;;;;1999.90;999.90;;;;;;;;;;5014413;28;20226;-65
2022/10/01 03:19:14;;;;;;;1999.90;999.90;;;;;;;;;;5010124;28;20212;-65
2022/10/01 03:21:59;;;;;;;1999.90;999.90;;;;;;;;;;5013186;28;20206;-64
2022/10/01 03:24:44;;;;;;;1999.90;999.90;;;;;;;;;;5014124;28;20287;-65
2022/10/01 03:27:30;;;;;;;1999.90;999.90;;;;;;;;;;5013415;28;20555;-65
2022/10/01 03:30:15;;;;;;;1999.90;999.90;;;;;;;;;;5014440;28;20205;-65
2022/10/01 03:33:00;;;;;;;1999.90;999.90;;;;;;;;;;5014542;28;20335;-65
2022/10/01 03:35:45;;;;;;;1999.90;999.90;;;;;;;;;;5014129;28;20612;-65
2022/10/01 03:38:30;;;;;;;1999.90;999.90;;;;;;;;;;5014689;28;20210;-64
2022/10/01 03:41:15;;;;;;;1999.90;999.90;;;;;;;;;;5014606;28;20202;-65
2022/10/01 03:44:01;;;;;;;1999.90;999.90;;;;;;;;;;5014202;28;20366;-65
2022/10/01 03:46:47;;;;;;;1999.90;999.90;;;;;;;;;;5014252;28;20233;-65
2022/10/01 03:49:32;;;;;;;1999.90;999.90;;;;;;;;;;5014251;28;20315;-64
2022/10/01 03:52:17;;;;;;;1999.90;999.90;;;;;;;;;;5014235;28;20269;-65
2022/10/01 03:55:02;;;;;;;1999.90;999.90;;;;;;;;;;5013852;28;20219;-65
2022/10/01 03:57:47;;;;;;;1999.90;999.90;;;;;;;;;;5014142;28;20270;-65
2022/10/01 04:00:33;;;;;;;1999.90;999.90;;;;;;;;;;5014008;28;20211;-64
2022/10/01 04:03:19;;;;;;;1999.90;999.90;;;;;;;;;;5013730;28;20688;-65
2022/10/01 04:06:04;;;;;;;1999.90;999.90;;;;;;;;;;5013707;28;20313;-64
2022/10/01 04:08:49;;;;;;;1999.90;999.90;;;;;;;;;;5013585;28;20596;-66
2022/10/01 04:11:33;;;;;;;1999.90;999.90;;;;;;;;;;5014061;28;20323;-64
2022/10/01 04:14:19;;;;;;;1999.90;999.90;;;;;;;;;;5013348;28;20199;-64
2022/10/01 04:17:05;;;;;;;1999.90;999.90;;;;;;;;;;5013404;28;20467;-65
2022/10/01 04:19:50;;;;;;;1999.90;999.90;;;;;;;;;;5013705;28;20211;-65
2022/10/01 04:22:36;;;;;;;1999.90;999.90;;;;;;;;;;5013639;28;20688;-64
2022/10/01 04:25:21;;;;;;;1999.90;999.90;;;;;;;;;;5012810;28;20230;-65
2022/10/01 04:28:07;;;;;;;1999.90;999.90;;;;;;;;;;5013471;28;20278;-64
2022/10/01 04:31:23;;;;;;;1999.90;999.90;;;;;;;;;;5013490;28;20587;-66
2022/10/01 04:33:59;;;;;;;1999.90;999.90;;;;;;;;;;5013229;28;20279;-64
2022/10/01 04:36:44;;;;;;;1999.90;999.90;;;;;;;;;;5012142;28;20405;-65
2022/10/01 04:39:28;;;;;;;1999.90;999.90;;;;;;;;;;5013373;28;20204;-65
2022/10/01 04:42:13;;;;;;;1999.90;999.90;;;;;;;;;;5013276;28;20338;-65
2022/10/01 04:44:58;;;;;;;1999.90;999.90;;;;;;;;;;5012617;28;20235;-65
2022/10/01 04:47:48;;;;;;;1999.90;999.90;;;;;;;;;;5013008;28;20709;-65
2022/10/01 04:50:34;;;;;;;1999.90;999.90;;;;;;;;;;5013162;28;20811;-65
2022/10/01 04:53:19;;;;;;;1999.90;999.90;;;;;;;;;;5013217;28;20212;-65
2022/10/01 04:56:04;;;;;;;1999.90;999.90;;;;;;;;;;5012652;28;20264;-65
2022/10/01 04:58:49;;;;;;;1999.90;999.90;;;;;;;;;;5012673;28;20694;-65
2022/10/01 05:01:34;;;;;;;1999.90;999.90;;;;;;;;;;5012981;28;20210;-65
2022/10/01 05:04:19;;;;;;;1999.90;999.90;;;;;;;;;;5012361;28;20585;-64
2022/10/01 05:07:05;;;;;;;1999.90;999.90;;;;;;;;;;5012787;28;20306;-65
2022/10/01 05:09:50;;;;;;;1999.90;999.90;;;;;;;;;;5012603;28;20630;-66
2022/10/01 05:12:35;;;;;;;1999.90;999.90;;;;;;;;;;5012813;28;20202;-64
2022/10/01 05:15:20;;;;;;;1999.90;999.90;;;;;;;;;;5012160;28;20591;-65
2022/10/01 05:18:05;;;;;;;1999.90;999.90;;;;;;;;;;5012709;28;20328;-64
2022/10/01 05:20:50;;;;;;;1999.90;999.90;;;;;;;;;;5012788;28;20227;-66
2022/10/01 05:23:36;;;;;;;1999.90;999.90;;;;;;;;;;5012477;28;20215;-65
2022/10/01 05:26:21;;;;;;;1999.90;999.90;;;;;;;;;;5012256;28;20314;-65
2022/10/01 05:29:07;;;;;;;1999.90;999.90;;;;;;;;;;5011161;28;20533;-65
2022/10/01 05:31:52;;;;;;;1999.90;999.90;;;;;;;;;;5012447;28;20286;-66
2022/10/01 05:34:37;;;;;;;1999.90;999.90;;;;;;;;;;5011875;28;20225;-64
2022/10/01 05:37:23;;;;;;;1999.90;999.90;;;;;;;;;;5012322;28;20212;-65
2022/10/01 05:40:09;;;;;;;1999.90;999.90;;;;;;;;;;5012465;28;20228;-65
2022/10/01 05:42:55;;;;;;;1999.90;999.90;;;;;;;;;;5012209;28;20738;-65
2022/10/01 05:45:41;;;;;;;1999.90;999.90;;;;;;;;;;5011497;28;20437;-66
2022/10/01 05:48:26;;;;;;;1999.90;999.90;;;;;;;;;;5012076;28;20287;-65
2022/10/01 05:51:15;;;;;;;1999.90;999.90;;;;;;;;;;5012026;28;20208;-65
2022/10/01 05:54:01;;;;;;;1999.90;999.90;;;;;;;;;;5005370;28;20351;-65
2022/10/01 05:56:47;;;;;;;1999.90;999.90;;;;;;;;;;5002134;28;20213;-65
2022/10/01 05:59:32;;;;;;;1999.90;999.90;;;;;;;;;;5013433;28;20702;-65
2022/10/01 06:02:17;;;;;;;1999.90;999.90;;;;;;;;;;5011967;28;20224;-65
2022/10/01 06:05:02;;;;;;;1999.90;999.90;;;;;;;;;;5011457;28;20622;-65
2022/10/01 06:07:47;;;;;;;1999.90;999.90;;;;;;;;;;5012305;28;20257;-65
2022/10/01 06:10:32;;;;;;;1999.90;999.90;;;;;;;;;;5012085;28;20375;-66
2022/10/01 06:13:19;;;;;;;1999.90;999.90;;;;;;;;;;5011291;28;20304;-66
2022/10/01 06:16:04;;;;;;;1999.90;999.90;;;;;;;;;;4991754;28;20235;-64
2022/10/01 06:18:50;;;;;;;1999.90;999.90;;;;;;;;;;4992406;28;20292;-65
2022/10/01 06:21:35;;;;;;;1999.90;999.90;;;;;;;;;;4992194;28;20690;-65
2022/10/01 06:24:20;;;;;;;1999.90;999.90;;;;;;;;;;4991847;28;20263;-64
2022/10/01 06:27:05;;;;;;;1999.90;999.90;;;;;;;;;;4992498;28;20248;-63
2022/10/01 06:29:51;;;;;;;1999.90;999.90;;;;;;;;;;4994715;28;20236;-61
2022/10/01 06:32:36;;;;;;;1999.90;999.90;;;;;;;;;;5011903;28;20716;-65
2022/10/01 06:35:21;;;;;;;1999.90;999.90;;;;;;;;;;5011568;28;20224;-64
2022/10/01 06:38:08;;;;;;;1999.90;999.90;;;;;;;;;;5010954;28;20895;-63
2022/10/01 06:40:53;;;;;;;1999.90;999.90;;;;;;;;;;5011808;28;20205;-65
2022/10/01 06:43:38;;;;;;;1999.90;999.90;;;;;;;;;;5011746;28;20260;-64
2022/10/01 06:46:25;;;;;;;1999.90;999.90;;;;;;;;;;5011755;28;20750;-65
2022/10/01 06:49:10;;;;;;;1999.90;999.90;;;;;;;;;;4995770;28;20217;-65
2022/10/01 06:54:58;;;;;;;1999.90;999.90;;;;;;;;;;5004417;28;20673;-66
2022/10/01 06:57:43;;;;;;;1999.90;999.90;;;;;;;;;;5008733;28;20449;-65
2022/10/01 07:00:30;;;;;;;1999.90;999.90;;;;;;;;;;5015108;28;20248;-66
2022/10/01 07:03:17;;;;;;;1999.90;999.90;;;;;;;;;;5034964;28;20268;-67
2022/10/01 07:06:03;;;;;;;1999.90;999.90;;;;;;;;;;5034236;28;20275;-66
2022/10/01 07:08:49;;;;;;;1999.90;999.90;;;;;;;;;;5034766;28;20209;-66
2022/10/01 07:11:37;;;;;;;1999.90;999.90;;;;;;;;;;5034758;28;20351;-67
2022/10/01 07:14:22;;;;;;;1999.90;999.90;;;;;;;;;;5020026;28;20212;-66
2022/10/01 07:17:06;;;;;;;1999.90;999.90;;;;;;;;;;5014882;28;20213;-66
2022/10/01 07:19:53;;;;;;;1999.90;999.90;;;;;;;;;;5014619;28;20209;-66
2022/10/01 07:22:38;;;;;;;1999.90;999.90;;;;;;;;;;5014526;28;20341;-66
2022/10/01 07:25:23;;;;;;;1999.90;999.90;;;;;;;;;;5014173;28;20242;-65
2022/10/01 07:28:14;;;;;;;1999.90;999.90;;;;;;;;;;5014685;28;20214;-66
2022/10/01 07:31:01;;;;;;;1999.90;999.90;;;;;;;;;;5010005;28;20226;-66
2022/10/01 07:33:47;;;;;;;1999.90;999.90;;;;;;;;;;5012135;28;20206;-66
2022/10/01 07:36:33;;;;;;;1999.90;999.90;;;;;;;;;;5012136;28;20866;-66
2022/10/01 07:39:18;;;;;;;1999.90;999.90;;;;;;;;;;5010834;28;20201;-66
2022/10/01 07:42:03;;;;;;;1999.90;999.90;;;;;;;;;;5010297;28;20415;-66
2022/10/01 07:44:48;;;;;;;1999.90;999.90;;;;;;;;;;5011480;28;20333;-66
2022/10/01 07:47:32;;;;;;;1999.90;999.90;;;;;;;;;;5006372;28;20210;-66
2022/10/01 07:50:17;;;;;;;1999.90;999.90;;;;;;;;;;5008347;28;20694;-67
2022/10/01 07:53:04;;;;;;;1999.90;999.90;;;;;;;;;;5009074;28;20238;-67
2022/10/01 07:55:48;;;;;;;1999.90;999.90;;;;;;;;;;5009509;28;20337;-66
2022/10/01 07:58:34;;;;;;;1999.90;999.90;;;;;;;;;;5008750;28;20214;-66
2022/10/01 08:01:18;;;;;;;1999.90;999.90;;;;;;;;;;5008650;28;20210;-67
2022/10/01 08:05:16;;;;;;;1999.90;999.90;;;;;;;;;;5009341;28;20277;-66
2022/10/01 08:07:09;;;;;;;1999.90;999.90;;;;;;;;;;5010186;28;20285;-67
2022/10/01 08:09:56;;;;;;;1999.90;999.90;;;;;;;;;;5009417;28;20214;-66
2022/10/01 08:12:42;;;;;;;1999.90;999.90;;;;;;;;;;5008678;28;20218;-67
2022/10/01 08:15:27;;;;;;;1999.90;999.90;;;;;;;;;;5009957;28;20234;-67
2022/10/01 08:18:12;;;;;;;1999.90;999.90;;;;;;;;;;5011517;28;20210;-66
2022/10/01 08:20:58;;;;;;;1999.90;999.90;;;;;;;;;;5011454;28;20329;-67
2022/10/01 08:23:43;;;;;;;1999.90;999.90;;;;;;;;;;5011250;28;20214;-67
2022/10/01 08:26:29;;;;;;;1999.90;999.90;;;;;;;;;;5010881;28;20231;-65
2022/10/01 08:29:14;;;;;;;1999.90;999.90;;;;;;;;;;5010957;28;20210;-66
2022/10/01 08:31:59;;;;;;;1999.90;999.90;;;;;;;;;;5011274;28;20250;-67
2022/10/01 08:34:45;;;;;;;1999.90;999.90;;;;;;;;;;5011087;28;20225;-66
2022/10/01 08:37:30;;;;;;;1999.90;999.90;;;;;;;;;;5011011;28;20214;-65
2022/10/01 08:40:16;;;;;;;1999.90;999.90;;;;;;;;;;5011294;28;20335;-66
2022/10/01 08:43:05;;;;;;;1999.90;999.90;;;;;;;;;;5009693;28;20230;-66
2022/10/01 08:45:51;;;;;;;1999.90;999.90;;;;;;;;;;5009903;28;20589;-64
2022/10/01 08:48:39;;;;;;;1999.90;999.90;;;;;;;;;;5011143;28;20572;-65
2022/10/01 08:51:27;;;;;;;1999.90;999.90;;;;;;;;;;5007987;28;20292;-66
2022/10/01 08:54:18;;;;;;;1999.90;999.90;;;;;;;;;;5010281;28;20581;-66
2022/10/01 08:57:04;;;;;;;1999.90;999.90;;;;;;;;;;5010434;28;20420;-65
2022/10/01 08:59:52;;;;;;;1999.90;999.90;;;;;;;;;;5011334;28;20681;-67
2022/10/01 09:02:39;;;;;;;1999.90;999.90;;;;;;;;;;5010726;28;20234;-67
2022/10/01 09:05:27;;;;;;;1999.90;999.90;;;;;;;;;;5010401;28;20744;-65
2022/10/01 09:08:18;;;;;;;1999.90;999.90;;;;;;;;;;5010640;28;20210;-67
2022/10/01 09:11:06;;;;;;;1999.90;999.90;;;;;;;;;;5007015;28;20693;-67
2022/10/01 09:14:02;;;;;;;1999.90;999.90;;;;;;;;;;5010740;28;20206;-67
2022/10/01 09:16:52;;;;;;;1999.90;999.90;;;;;;;;;;5011795;28;20397;-66
2022/10/01 09:19:44;;;;;;;1999.90;999.90;;;;;;;;;;5012709;28;20637;-66
2022/10/01 09:22:34;;;;;;;1999.90;999.90;;;;;;;;;;5012600;28;20257;-67
2022/10/01 09:25:21;;;;;;;1999.90;999.90;;;;;;;;;;5011831;28;20784;-67
2022/10/01 09:28:11;;;;;;;1999.90;999.90;;;;;;;;;;5012577;28;20354;-67
2022/10/01 09:30:57;;;;;;;1999.90;999.90;;;;;;;;;;5012522;28;20289;-65
2022/10/01 09:33:45;;;;;;;1999.90;999.90;;;;;;;;;;5012457;28;20206;-67
2022/10/01 09:36:34;;;;;;;1999.90;999.90;;;;;;;;;;5011909;28;20223;-67
2022/10/01 09:39:21;;;;;;;1999.90;999.90;;;;;;;;;;5006989;28;20325;-66
2022/10/01 09:42:06;;;;;;;1999.90;999.90;;;;;;;;;;5001456;28;20348;-66
2022/10/01 09:44:53;;;;;;;1999.90;999.90;;;;;;;;;;5007898;28;20817;-66
2022/10/01 09:47:42;;;;;;;1999.90;999.90;;;;;;;;;;5001075;28;20298;-66
2022/10/01 09:50:31;;;;;;;1999.90;999.90;;;;;;;;;;5005211;28;20334;-66
2022/10/01 09:53:17;;;;;;;1999.90;999.90;;;;;;;;;;5012157;28;20205;-67
2022/10/01 09:56:08;;;;;;;1999.90;999.90;;;;;;;;;;5009525;28;20345;-67
2022/10/01 09:58:55;;;;;;;1999.90;999.90;;;;;;;;;;5009671;28;20752;-67
2022/10/01 10:01:43;;;;;;;1999.90;999.90;;;;;;;;;;5005838;28;20218;-67
2022/10/01 10:04:28;;;;;;;1999.90;999.90;;;;;;;;;;5004927;28;20579;-67
2022/10/01 10:07:17;;;;;;;1999.90;999.90;;;;;;;;;;5010432;28;20218;-66
2022/10/01 10:10:10;;;;;;;1999.90;999.90;;;;;;;;;;5011441;28;20408;-66
2022/10/01 10:12:57;;;;;;;1999.90;999.90;;;;;;;;;;5012093;28;20206;-67
2022/10/01 10:15:49;;;;;;;1999.90;999.90;;;;;;;;;;5005643;28;20329;-65
2022/10/01 10:18:35;;;;;;;1999.90;999.90;;;;;;;;;;5010379;28;20223;-66
2022/10/01 10:21:21;;;;;;;1999.90;999.90;;;;;;;;;;4999283;28;20797;-66
2022/10/01 10:24:22;;;;;;;1999.90;999.90;;;;;;;;;;5015694;28;20257;-66
2022/10/01 10:27:20;;;;;;;1999.90;999.90;;;;;;;;;;5009335;28;20861;-66
2022/10/01 10:30:07;;;;;;;1999.90;999.90;;;;;;;;;;5014854;28;20407;-67
2022/10/01 10:32:53;;;;;;;1999.90;999.90;;;;;;;;;;5015776;28;20211;-66
2022/10/01 10:35:38;;;;;;;1999.90;999.90;;;;;;;;;;5014460;28;20242;-67
2022/10/01 10:38:26;;;;;;;1999.90;999.90;;;;;;;;;;5003172;28;20293;-66
2022/10/01 10:41:18;;;;;;;1999.90;999.90;;;;;;;;;;5010988;28;20203;-67
2022/10/01 10:44:06;;;;;;;1999.90;999.90;;;;;;;;;;5012013;28;20203;-66
2022/10/01 10:46:52;;;;;;;1999.90;999.90;;;;;;;;;;5012623;28;20233;-67
2022/10/01 10:49:39;;;;;;;1999.90;999.90;;;;;;;;;;4995846;28;20247;-66
2022/10/01 10:52:28;;;;;;;1999.90;999.90;;;;;;;;;;4995764;28;20203;-66
2022/10/01 10:55:21;;;;;;;1999.90;999.90;;;;;;;;;;4998189;28;20737;-67
2022/10/01 10:58:11;;;;;;;1999.90;999.90;;;;;;;;;;5015141;28;20218;-67
2022/10/01 11:00:58;;;;;;;1999.90;999.90;;;;;;;;;;5007940;28;20210;-67
2022/10/01 11:03:46;;;;;;;1999.90;999.90;;;;;;;;;;5010925;28;20214;-67
2022/10/01 11:06:31;;;;;;;1999.90;999.90;;;;;;;;;;5011994;28;20642;-67
2022/10/01 11:09:17;;;;;;;1999.90;999.90;;;;;;;;;;5014129;28;20578;-67
2022/10/01 11:12:07;;;;;;;1999.90;999.90;;;;;;;;;;5014389;28;20218;-67
2022/10/01 11:15:02;;;;;;;1999.90;999.90;;;;;;;;;;5009294;28;20843;-66
2022/10/01 11:17:59;;;;;;;1999.90;999.90;;;;;;;;;;5009005;28;20273;-67
2022/10/01 11:20:50;;;;;;;1999.90;999.90;;;;;;;;;;5008837;28;20285;-67
2022/10/01 11:23:45;;;;;;;1999.90;999.90;;;;;;;;;;5008932;28;20260;-67
2022/10/01 11:26:33;;;;;;;1999.90;999.90;;;;;;;;;;5009826;28;20646;-67
2022/10/01 11:29:24;;;;;;;1999.90;999.90;;;;;;;;;;5006354;28;20226;-66
2022/10/01 11:32:18;;;;;;;1999.90;999.90;;;;;;;;;;5010135;28;20214;-66
2022/10/01 11:35:11;;;;;;;1999.90;999.90;;;;;;;;;;5010568;28;20432;-67
2022/10/01 11:38:12;;;;;;;1999.90;999.90;;;;;;;;;;5011840;28;20206;-66
2022/10/01 11:41:00;;;;;;;1999.90;999.90;;;;;;;;;;5005896;28;20210;-66
2022/10/01 11:43:49;;;;;;;1999.90;999.90;;;;;;;;;;5010590;28;20207;-66
2022/10/01 11:46:47;;;;;;;1999.90;999.90;;;;;;;;;;4997414;28;20726;-66
2022/10/01 11:49:39;;;;;;;1999.90;999.90;;;;;;;;;;5008786;28;20278;-65
2022/10/01 11:52:28;;;;;;;1999.90;999.90;;;;;;;;;;4994711;28;20781;-66
2022/10/01 12:01:27;;;;;;;1999.90;999.90;;;;;;;;;;4998979;28;20709;-66
2022/10/01 12:04:24;;;;;;;1999.90;999.90;;;;;;;;;;5013819;28;20207;-66
2022/10/01 12:07:13;;;;;;;1999.90;999.90;;;;;;;;;;5013660;28;20266;-67
2022/10/01 12:10:01;;;;;;;1999.90;999.90;;;;;;;;;;5013918;28;20203;-67
2022/10/01 12:12:47;;;;;;;1999.90;999.90;;;;;;;;;;5013811;28;20210;-66
2022/10/01 12:15:34;;;;;;;1999.90;999.90;;;;;;;;;;5008101;28;20246;-66
2022/10/01 12:18:22;;;;;;;1999.90;999.90;;;;;;;;;;5005490;28;20213;-66
2022/10/01 12:21:13;;;;;;;1999.90;999.90;;;;;;;;;;5010627;28;20639;-66
2022/10/01 12:24:02;;;;;;;1999.90;999.90;;;;;;;;;;5009894;28;20207;-66
2022/10/01 12:26:53;;;;;;;1999.90;999.90;;;;;;;;;;4996885;28;20441;-66
2022/10/01 12:29:42;;;;;;;1999.90;999.90;;;;;;;;;;5002538;28;20206;-66
2022/10/01 12:32:33;;;;;;;1999.90;999.90;;;;;;;;;;5008668;28;20226;-66
2022/10/01 12:35:24;;;;;;;1999.90;999.90;;;;;;;;;;5007013;28;20270;-66
2022/10/01 12:38:14;;;;;;;1999.90;999.90;;;;;;;;;;5008523;28;20299;-66
2022/10/01 12:41:04;;;;;;;1999.90;999.90;;;;;;;;;;5004185;28;20207;-66
2022/10/01 12:43:57;;;;;;;1999.90;999.90;;;;;;;;;;5009448;28;20330;-66
2022/10/01 12:46:45;;;;;;;1999.90;999.90;;;;;;;;;;5008008;28;20431;-66
2022/10/01 12:49:33;;;;;;;1999.90;999.90;;;;;;;;;;5012430;28;20215;-66
2022/10/01 12:52:21;;;;;;;1999.90;999.90;;;;;;;;;;5011081;28;20214;-67
2022/10/01 12:55:13;;;;;;;1999.90;999.90;;;;;;;;;;5012428;28;20231;-67
2022/10/01 12:58:02;;;;;;;1999.90;999.90;;;;;;;;;;5011019;28;20262;-66
2022/10/01 13:00:51;;;;;;;1999.90;999.90;;;;;;;;;;5007277;28;20202;-67
2022/10/01 13:03:45;;;;;;;1999.90;999.90;;;;;;;;;;5006794;28;20218;-67
2022/10/01 13:06:34;;;;;;;1999.90;999.90;;;;;;;;;;5012406;28;20313;-67
2022/10/01 13:09:23;;;;;;;1999.90;999.90;;;;;;;;;;5008382;28;20286;-66
2022/10/01 13:12:16;;;;;;;1999.90;999.90;;;;;;;;;;5011398;28;20262;-67
2022/10/01 13:15:03;;;;;;;1999.90;999.90;;;;;;;;;;5006432;28;20392;-68
2022/10/01 13:17:52;;;;;;;1999.90;999.90;;;;;;;;;;5010010;28;20201;-67
2022/10/01 13:20:40;;;;;;;1999.90;999.90;;;;;;;;;;5010343;28;20289;-67
2022/10/01 13:23:28;;;;;;;1999.90;999.90;;;;;;;;;;5007081;28;20206;-64
2022/10/01 13:26:17;;;;;;;1999.90;999.90;;;;;;;;;;5009640;28;20238;-66
2022/10/01 13:29:14;;;;;;;1999.90;999.90;;;;;;;;;;5008391;28;20479;-66
2022/10/01 13:32:02;;;;;;;1999.90;999.90;;;;;;;;;;5010422;28;20199;-65
2022/10/01 13:34:46;;;;;;;1999.90;999.90;;;;;;;;;;5007940;28;20356;-66
2022/10/01 13:37:32;;;;;;;1999.90;999.90;;;;;;;;;;5008389;28;20249;-66
2022/10/01 13:40:22;;;;;;;1999.90;999.90;;;;;;;;;;5008642;28;20470;-67
2022/10/01 13:43:13;;;;;;;1999.90;999.90;;;;;;;;;;5008593;28;20207;-65
2022/10/01 13:46:05;;;;;;;1999.90;999.90;;;;;;;;;;5009365;28;20732;-66
2022/10/01 13:48:52;;;;;;;1999.90;999.90;;;;;;;;;;5007550;28;20210;-67
2022/10/01 13:51:37;;;;;;;1999.90;999.90;;;;;;;;;;5009477;28;20206;-67
2022/10/01 13:54:26;;;;;;;1999.90;999.90;;;;;;;;;;5008594;28;20202;-67
2022/10/01 13:57:25;;;;;;;1999.90;999.90;;;;;;;;;;5007568;28;20289;-66
2022/10/01 14:00:21;;;;;;;1999.90;999.90;;;;;;;;;;5010022;28;20428;-67
2022/10/01 14:03:23;;;;;;;1999.90;999.90;;;;;;;;;;5011881;28;20753;-67
2022/10/01 14:06:15;;;;;;;1999.90;999.90;;;;;;;;;;5011660;28;20224;-66
2022/10/01 14:09:03;;;;;;;1999.90;999.90;;;;;;;;;;5002775;28;20217;-67
2022/10/01 14:18:00;;;;;;;1999.90;999.90;;;;;;;;;;5011907;28;20282;-67
2022/10/01 14:20:50;;;;;;;1999.90;999.90;;;;;;;;;;5011982;28;20203;-66
2022/10/01 14:23:40;;;;;;;1999.90;999.90;;;;;;;;;;5011109;28;20631;-66
2022/10/01 14:26:29;;;;;;;1999.90;999.90;;;;;;;;;;5011425;28;20353;-66
2022/10/01 14:29:22;;;;;;;1999.90;999.90;;;;;;;;;;5011925;28;20723;-67
2022/10/01 14:32:13;;;;;;;1999.90;999.90;;;;;;;;;;5011195;28;20207;-67
2022/10/01 14:35:04;;;;;;;1999.90;999.90;;;;;;;;;;5011565;28;20741;-66
2022/10/01 14:37:49;;;;;;;1999.90;999.90;;;;;;;;;;5003801;28;20203;-67
2022/10/01 14:40:38;;;;;;;1999.90;999.90;;;;;;;;;;5010271;28;20215;-66
2022/10/01 14:43:23;;;;;;;1999.90;999.90;;;;;;;;;;5011814;28;20211;-66
2022/10/01 14:46:12;;;;;;;1999.90;999.90;;;;;;;;;;5007103;28;20330;-66
2022/10/01 14:48:58;;;;;;;1999.90;999.90;;;;;;;;;;5008576;28;20760;-68
2022/10/01 14:51:48;;;;;;;1999.90;999.90;;;;;;;;;;4998659;28;20465;-67
2022/10/01 14:54:42;;;;;;;1999.90;999.90;;;;;;;;;;4996238;28;20840;-67
2022/10/01 14:57:30;;;;;;;1999.90;999.90;;;;;;;;;;5011644;28;20199;-65
2022/10/01 15:00:17;;;;;;;1999.90;999.90;;;;;;;;;;5011671;28;20289;-67
2022/10/01 15:03:03;;;;;;;1999.90;999.90;;;;;;;;;;5011532;28;20289;-67
2022/10/01 15:05:48;;;;;;;1999.90;999.90;;;;;;;;;;5011076;28;20594;-66
2022/10/01 15:08:38;;;;;;;1999.90;999.90;;;;;;;;;;4993941;28;20223;-67
2022/10/01 15:11:24;;;;;;;1999.90;999.90;;;;;;;;;;4994153;28;20516;-70
2022/10/01 15:14:14;;;;;;;1999.90;999.90;;;;;;;;;;4995375;28;20910;-66
2022/10/01 15:17:02;;;;;;;1999.90;999.90;;;;;;;;;;4994931;28;20211;-67
2022/10/01 15:19:51;;;;;;;1999.90;999.90;;;;;;;;;;5000064;28;20732;-67
2022/10/01 15:22:36;;;;;;;1999.90;999.90;;;;;;;;;;5009386;28;20281;-67
2022/10/01 15:25:23;;;;;;;1999.90;999.90;;;;;;;;;;5004360;28;20768;-65
2022/10/01 15:28:13;;;;;;;1999.90;999.90;;;;;;;;;;5012750;28;20226;-69
2022/10/01 15:31:02;;;;;;;1999.90;999.90;;;;;;;;;;5008066;28;20271;-68
2022/10/01 15:33:47;;;;;;;1999.90;999.90;;;;;;;;;;5011785;28;20289;-67
2022/10/01 15:36:34;;;;;;;1999.90;999.90;;;;;;;;;;5008463;28;20238;-66
2022/10/01 15:39:24;;;;;;;1999.90;999.90;;;;;;;;;;5012733;28;20209;-67
2022/10/01 15:42:20;;;;;;;1999.90;999.90;;;;;;;;;;5006022;28;20283;-66
2022/10/01 15:45:22;;;;;;;1999.90;999.90;;;;;;;;;;5013834;28;20779;-66
2022/10/01 15:48:26;;;;;;;1999.90;999.90;;;;;;;;;;5013126;28;20234;-66
2022/10/01 15:51:19;;;;;;;1999.90;999.90;;;;;;;;;;5010411;28;20210;-66
2022/10/01 15:54:07;;;;;;;1999.90;999.90;;;;;;;;;;5012091;28;20207;-67